sensor_id;sensor_type;location;lat;lon;timestamp;pressure;altitude;pressure_sealevel;temperature;humidity
22580;BME280;11456;47.030;15.396;2023-03-23T00:01:03;97194.19;;;8.47;76.19
22580;BME280;11456;47.030;15.396;2023-03-23T00:03:29;97189.16;;;8.44;75.88
22580;BME280;11456;47.030;15.396;2023-03-23T00:06:00;97186.22;;;8.37;76.50
22580;BME280;11456;47.030;15.396;2023-03-23T00:08:27;97185.00;;;8.22;77.73
22580;BME280;11456;47.030;15.396;2023-03-23T00:10:53;97189.84;;;8.09;78.67
22580;BME280;11456;47.030;15.396;2023-03-23T00:13:22;97191.56;;;8.00;78.88
22580;BME280;11456;47.030;15.396;2023-03-23T00:15:48;97187.03;;;8.11;78.52
22580;BME280;11456;47.030;15.396;2023-03-23T00:18:15;97191.38;;;7.84;78.99
22580;BME280;11456;47.030;15.396;2023-03-23T00:20:56;97190.31;;;7.58;80.61
22580;BME280;11456;47.030;15.396;2023-03-23T00:23:23;97190.56;;;7.74;80.64
22580;BME280;11456;47.030;15.396;2023-03-23T00:25:55;97185.22;;;7.74;80.88
22580;BME280;11456;47.030;15.396;2023-03-23T00:28:24;97182.34;;;7.85;79.92
22580;BME280;11456;47.030;15.396;2023-03-23T00:31:04;97170.13;;;8.00;79.35
22580;BME280;11456;47.030;15.396;2023-03-23T00:33:34;97185.22;;;7.74;79.29
22580;BME280;11456;47.030;15.396;2023-03-23T00:36:07;97183.22;;;7.76;79.68
22580;BME280;11456;47.030;15.396;2023-03-23T00:38:34;97185.78;;;7.68;80.07
22580;BME280;11456;47.030;15.396;2023-03-23T00:41:00;97177.00;;;7.76;79.77
22580;BME280;11456;47.030;15.396;2023-03-23T00:43:28;97173.50;;;8.02;78.96
22580;BME280;11456;47.030;15.396;2023-03-23T00:45:54;97179.13;;;7.72;79.63
22580;BME280;11456;47.030;15.396;2023-03-23T00:48:20;97176.72;;;7.69;80.85
22580;BME280;11456;47.030;15.396;2023-03-23T00:50:46;97181.25;;;7.69;80.47
22580;BME280;11456;47.030;15.396;2023-03-23T00:53:11;97179.06;;;7.54;80.63
22580;BME280;11456;47.030;15.396;2023-03-23T00:55:37;97168.16;;;7.56;80.32
22580;BME280;11456;47.030;15.396;2023-03-23T00:58:02;97172.53;;;7.57;80.53
22580;BME280;11456;47.030;15.396;2023-03-23T01:00:28;97171.28;;;7.51;81.03
22580;BME280;11456;47.030;15.396;2023-03-23T01:02:53;97163.91;;;7.63;80.90
22580;BME280;11456;47.030;15.396;2023-03-23T01:05:19;97160.97;;;7.66;80.03
22580;BME280;11456;47.030;15.396;2023-03-23T01:07:45;97160.50;;;7.71;80.00
22580;BME280;11456;47.030;15.396;2023-03-23T01:10:11;97148.94;;;7.70;79.27
22580;BME280;11456;47.030;15.396;2023-03-23T01:12:44;97154.78;;;7.56;79.83
22580;BME280;11456;47.030;15.396;2023-03-23T01:15:15;97144.63;;;7.50;79.58
22580;BME280;11456;47.030;15.396;2023-03-23T01:17:42;97151.69;;;7.51;80.13
22580;BME280;11456;47.030;15.396;2023-03-23T01:20:08;97160.06;;;7.75;80.32
22580;BME280;11456;47.030;15.396;2023-03-23T01:22:35;97149.41;;;7.56;80.28
22580;BME280;11456;47.030;15.396;2023-03-23T01:25:00;97155.34;;;7.50;79.88
22580;BME280;11456;47.030;15.396;2023-03-23T01:27:26;97156.50;;;7.47;79.87
22580;BME280;11456;47.030;15.396;2023-03-23T01:29:51;97155.34;;;7.50;80.22
22580;BME280;11456;47.030;15.396;2023-03-23T01:32:17;97151.16;;;7.38;79.82
22580;BME280;11456;47.030;15.396;2023-03-23T01:34:42;97149.19;;;7.40;80.75
22580;BME280;11456;47.030;15.396;2023-03-23T01:37:08;97151.50;;;7.15;81.92
22580;BME280;11456;47.030;15.396;2023-03-23T01:39:35;97148.16;;;7.04;82.95
22580;BME280;11456;47.030;15.396;2023-03-23T01:42:01;97137.13;;;7.16;82.74
22580;BME280;11456;47.030;15.396;2023-03-23T01:47:06;97134.56;;;7.24;81.67
22580;BME280;11456;47.030;15.396;2023-03-23T01:49:36;97135.44;;;7.15;81.81
22580;BME280;11456;47.030;15.396;2023-03-23T01:52:04;97137.84;;;6.80;84.25
22580;BME280;11456;47.030;15.396;2023-03-23T01:54:31;97130.34;;;7.12;83.02
22580;BME280;11456;47.030;15.396;2023-03-23T01:57:09;97122.59;;;7.19;82.18
22580;BME280;11456;47.030;15.396;2023-03-23T01:59:36;97122.91;;;7.16;82.49
22580;BME280;11456;47.030;15.396;2023-03-23T02:02:21;97126.44;;;7.16;81.90
22580;BME280;11456;47.030;15.396;2023-03-23T02:04:48;97123.31;;;7.11;82.57
22580;BME280;11456;47.030;15.396;2023-03-23T02:07:14;97125.88;;;7.03;83.26
22580;BME280;11456;47.030;15.396;2023-03-23T02:09:40;97133.91;;;7.03;83.46
22580;BME280;11456;47.030;15.396;2023-03-23T02:12:06;97128.13;;;6.98;82.58
22580;BME280;11456;47.030;15.396;2023-03-23T02:14:33;97132.91;;;6.85;83.57
22580;BME280;11456;47.030;15.396;2023-03-23T02:17:10;97132.63;;;6.98;83.54
22580;BME280;11456;47.030;15.396;2023-03-23T02:27:36;97133.47;;;6.98;83.75
22580;BME280;11456;47.030;15.396;2023-03-23T02:33:21;97133.22;;;6.82;83.71
22580;BME280;11456;47.030;15.396;2023-03-23T02:35:24;97137.19;;;6.78;83.49
22580;BME280;11456;47.030;15.396;2023-03-23T02:37:58;97137.19;;;6.78;82.69
22580;BME280;11456;47.030;15.396;2023-03-23T02:40:28;97139.69;;;6.70;83.46
22580;BME280;11456;47.030;15.396;2023-03-23T02:42:57;97134.06;;;6.73;83.25
22580;BME280;11456;47.030;15.396;2023-03-23T02:45:23;97134.91;;;6.64;83.29
22580;BME280;11456;47.030;15.396;2023-03-23T02:47:51;97135.19;;;6.61;83.39
22580;BME280;11456;47.030;15.396;2023-03-23T02:50:17;97130.69;;;6.80;83.31
22580;BME280;11456;47.030;15.396;2023-03-23T02:52:45;97128.69;;;6.73;82.66
22580;BME280;11456;47.030;15.396;2023-03-23T02:55:13;97128.84;;;6.62;84.06
22580;BME280;11456;47.030;15.396;2023-03-23T02:57:39;97133.22;;;6.53;83.98
22580;BME280;11456;47.030;15.396;2023-03-23T03:00:06;97130.41;;;6.64;84.09
22580;BME280;11456;47.030;15.396;2023-03-23T03:02:36;97126.19;;;6.62;84.29
22580;BME280;11456;47.030;15.396;2023-03-23T03:05:10;97122.78;;;6.60;84.27
22580;BME280;11456;47.030;15.396;2023-03-23T03:07:43;97126.75;;;6.56;84.44
22580;BME280;11456;47.030;15.396;2023-03-23T03:18:05;97134.88;;;6.25;84.25
22580;BME280;11456;47.030;15.396;2023-03-23T03:20:33;97127.00;;;6.14;85.53
22580;BME280;11456;47.030;15.396;2023-03-23T03:23:03;97123.75;;;6.20;85.84
22580;BME280;11456;47.030;15.396;2023-03-23T03:25:30;97125.75;;;6.37;85.48
22580;BME280;11456;47.030;15.396;2023-03-23T03:27:57;97129.53;;;6.25;84.93
22580;BME280;11456;47.030;15.396;2023-03-23T03:30:37;97136.59;;;6.26;85.55
22580;BME280;11456;47.030;15.396;2023-03-23T03:33:03;97130.06;;;6.00;86.64
22580;BME280;11456;47.030;15.396;2023-03-23T03:35:30;97126.03;;;5.85;88.04
22580;BME280;11456;47.030;15.396;2023-03-23T03:37:57;97130.66;;;6.13;86.90
22580;BME280;11456;47.030;15.396;2023-03-23T03:40:23;97124.59;;;6.30;86.20
22580;BME280;11456;47.030;15.396;2023-03-23T03:42:49;97131.66;;;6.31;85.61
22580;BME280;11456;47.030;15.396;2023-03-23T03:45:16;97135.41;;;6.10;85.52
22580;BME280;11456;47.030;15.396;2023-03-23T03:47:42;97136.59;;;6.26;85.64
22580;BME280;11456;47.030;15.396;2023-03-23T03:50:08;97140.69;;;6.40;85.60
22580;BME280;11456;47.030;15.396;2023-03-23T03:52:34;97142.78;;;6.36;84.97
22580;BME280;11456;47.030;15.396;2023-03-23T03:54:59;97143.38;;;6.40;85.29
22580;BME280;11456;47.030;15.396;2023-03-23T03:57:26;97145.31;;;6.38;86.00
22580;BME280;11456;47.030;15.396;2023-03-23T04:00:04;97150.66;;;6.38;85.10
22580;BME280;11456;47.030;15.396;2023-03-23T04:02:43;97146.56;;;6.24;85.03
22580;BME280;11456;47.030;15.396;2023-03-23T04:05:10;97149.94;;;6.26;85.80
22580;BME280;11456;47.030;15.396;2023-03-23T04:07:37;97144.19;;;6.31;85.68
22580;BME280;11456;47.030;15.396;2023-03-23T04:10:06;97134.75;;;6.36;85.38
22580;BME280;11456;47.030;15.396;2023-03-23T04:12:34;97146.00;;;6.30;85.03
22580;BME280;11456;47.030;15.396;2023-03-23T04:15:25;97152.91;;;6.42;85.15
22580;BME280;11456;47.030;15.396;2023-03-23T04:17:51;97148.81;;;6.29;84.29
22580;BME280;11456;47.030;15.396;2023-03-23T04:20:17;97149.78;;;6.18;85.07
22580;BME280;11456;47.030;15.396;2023-03-23T04:22:47;97150.00;;;5.96;85.61
22580;BME280;11456;47.030;15.396;2023-03-23T04:25:15;97150.78;;;5.87;86.56
22580;BME280;11456;47.030;15.396;2023-03-23T04:27:42;97159.28;;;5.92;86.36
22580;BME280;11456;47.030;15.396;2023-03-23T04:30:10;97154.84;;;6.12;86.30
22580;BME280;11456;47.030;15.396;2023-03-23T04:32:44;97144.28;;;6.10;85.61
22580;BME280;11456;47.030;15.396;2023-03-23T04:35:13;97151.97;;;5.94;86.34
22580;BME280;11456;47.030;15.396;2023-03-23T04:38:05;97155.88;;;5.90;85.83
22580;BME280;11456;47.030;15.396;2023-03-23T04:40:35;97151.22;;;5.82;86.41
22580;BME280;11456;47.030;15.396;2023-03-23T04:43:23;97152.53;;;5.88;86.49
22580;BME280;11456;47.030;15.396;2023-03-23T04:45:55;97150.63;;;5.79;87.24
22580;BME280;11456;47.030;15.396;2023-03-23T04:48:27;97151.53;;;5.89;87.39
22580;BME280;11456;47.030;15.396;2023-03-23T04:51:02;97154.44;;;5.86;86.66
22580;BME280;11456;47.030;15.396;2023-03-23T04:53:30;97151.97;;;5.94;85.90
22580;BME280;11456;47.030;15.396;2023-03-23T04:55:57;97155.88;;;5.90;86.20
22580;BME280;11456;47.030;15.396;2023-03-23T04:58:24;97164.38;;;5.95;86.02
22580;BME280;11456;47.030;15.396;2023-03-23T05:01:13;97158.19;;;6.04;86.26
22580;BME280;11456;47.030;15.396;2023-03-23T05:04:02;97159.34;;;6.11;86.34
22580;BME280;11456;47.030;15.396;2023-03-23T05:06:31;97157.13;;;5.86;86.15
22580;BME280;11456;47.030;15.396;2023-03-23T05:09:01;97152.22;;;5.91;87.08
22580;BME280;11456;47.030;15.396;2023-03-23T05:11:28;97160.72;;;6.06;86.47
22580;BME280;11456;47.030;15.396;2023-03-23T05:13:57;97158.22;;;6.23;85.96
22580;BME280;11456;47.030;15.396;2023-03-23T05:16:22;97159.59;;;6.08;86.58
22580;BME280;11456;47.030;15.396;2023-03-23T05:18:47;97172.03;;;6.19;87.13
22580;BME280;11456;47.030;15.396;2023-03-23T05:21:15;97167.19;;;6.03;87.31
22580;BME280;11456;47.030;15.396;2023-03-23T05:23:46;97167.78;;;6.07;87.28
22580;BME280;11456;47.030;15.396;2023-03-23T05:26:17;97170.03;;;6.11;87.75
22580;BME280;11456;47.030;15.396;2023-03-23T05:28:43;97177.94;;;6.22;87.77
22580;BME280;11456;47.030;15.396;2023-03-23T05:31:31;97171.78;;;6.31;87.02
22580;BME280;11456;47.030;15.396;2023-03-23T05:33:57;97180.81;;;6.50;87.35
22580;BME280;11456;47.030;15.396;2023-03-23T05:36:45;97174.59;;;6.49;86.76
22580;BME280;11456;47.030;15.396;2023-03-23T05:39:46;97182.50;;;6.51;87.60
22580;BME280;11456;47.030;15.396;2023-03-23T05:42:35;97190.09;;;6.46;88.76
22580;BME280;11456;47.030;15.396;2023-03-23T05:45:10;97182.22;;;6.92;88.07
22580;BME280;11456;47.030;15.396;2023-03-23T05:47:39;97181.66;;;7.27;86.70
22580;BME280;11456;47.030;15.396;2023-03-23T05:50:09;97190.91;;;7.52;85.19
22580;BME280;11456;47.030;15.396;2023-03-23T05:52:36;97187.19;;;7.72;84.52
22580;BME280;11456;47.030;15.396;2023-03-23T05:55:06;97187.69;;;7.85;84.58
22580;BME280;11456;47.030;15.396;2023-03-23T05:57:34;97189.72;;;7.74;84.71
22580;BME280;11456;47.030;15.396;2023-03-23T06:00:16;97196.06;;;7.63;85.13
22580;BME280;11456;47.030;15.396;2023-03-23T06:02:53;97200.75;;;7.61;85.61
22580;BME280;11456;47.030;15.396;2023-03-23T06:05:26;97202.84;;;7.67;86.17
22580;BME280;11456;47.030;15.396;2023-03-23T06:07:53;97207.66;;;8.00;85.75
22580;BME280;11456;47.030;15.396;2023-03-23T06:10:19;97203.91;;;8.21;84.36
22580;BME280;11456;47.030;15.396;2023-03-23T06:12:52;97207.22;;;8.42;82.88
22580;BME280;11456;47.030;15.396;2023-03-23T06:15:31;97200.13;;;8.14;83.66
22580;BME280;11456;47.030;15.396;2023-03-23T06:18:03;97208.66;;;8.27;84.62
22580;BME280;11456;47.030;15.396;2023-03-23T06:20:39;97205.78;;;8.65;83.77
22580;BME280;11456;47.030;15.396;2023-03-23T06:23:21;97202.97;;;8.84;82.56
22580;BME280;11456;47.030;15.396;2023-03-23T06:25:47;97206.06;;;8.90;81.46
22580;BME280;11456;47.030;15.396;2023-03-23T06:28:12;97202.03;;;9.29;81.20
22580;BME280;11456;47.030;15.396;2023-03-23T06:30:42;97206.69;;;9.62;79.74
22580;BME280;11456;47.030;15.396;2023-03-23T06:33:08;97204.19;;;9.95;77.87
22580;BME280;11456;47.030;15.396;2023-03-23T06:35:54;97198.91;;;10.11;76.51
22580;BME280;11456;47.030;15.396;2023-03-23T06:38:39;97205.97;;;10.12;77.20
22580;BME280;11456;47.030;15.396;2023-03-23T06:41:05;97205.03;;;10.21;77.33
22580;BME280;11456;47.030;15.396;2023-03-23T06:43:31;97204.75;;;10.32;76.32
22580;BME280;11456;47.030;15.396;2023-03-23T06:46:10;97208.50;;;10.39;74.72
22580;BME280;11456;47.030;15.396;2023-03-23T06:48:35;97208.34;;;10.41;73.77
22580;BME280;11456;47.030;15.396;2023-03-23T06:51:03;97211.59;;;10.61;74.19
22580;BME280;11456;47.030;15.396;2023-03-23T06:53:30;97211.78;;;10.75;73.31
22580;BME280;11456;47.030;15.396;2023-03-23T06:55:57;97214.06;;;11.04;72.32
22580;BME280;11456;47.030;15.396;2023-03-23T06:58:22;97221.16;;;11.21;70.50
22580;BME280;11456;47.030;15.396;2023-03-23T07:00:53;97213.06;;;11.94;68.55
22580;BME280;11456;47.030;15.396;2023-03-23T07:03:19;97222.44;;;12.23;66.39
22580;BME280;11456;47.030;15.396;2023-03-23T07:05:48;97222.28;;;12.71;65.29
22580;BME280;11456;47.030;15.396;2023-03-23T07:08:16;97221.13;;;12.97;62.90
22580;BME280;11456;47.030;15.396;2023-03-23T07:10:51;97217.47;;;13.43;62.02
22580;BME280;11456;47.030;15.396;2023-03-23T07:13:21;97218.63;;;13.63;60.41
22580;BME280;11456;47.030;15.396;2023-03-23T07:15:50;97209.69;;;13.40;62.09
22580;BME280;11456;47.030;15.396;2023-03-23T07:18:17;97215.63;;;13.13;61.74
22580;BME280;11456;47.030;15.396;2023-03-23T07:20:49;97218.69;;;13.10;64.02
22580;BME280;11456;47.030;15.396;2023-03-23T07:23:16;97211.72;;;12.84;63.92
22580;BME280;11456;47.030;15.396;2023-03-23T07:26:08;97212.25;;;13.11;61.83
22580;BME280;11456;47.030;15.396;2023-03-23T07:28:41;97216.31;;;13.07;62.34
22580;BME280;11456;47.030;15.396;2023-03-23T07:31:18;97230.31;;;13.41;61.49
22580;BME280;11456;47.030;15.396;2023-03-23T07:33:44;97221.50;;;13.85;61.73
22580;BME280;11456;47.030;15.396;2023-03-23T07:36:10;97217.06;;;14.36;58.06
22580;BME280;11456;47.030;15.396;2023-03-23T07:38:36;97220.00;;;14.78;55.86
22580;BME280;11456;47.030;15.396;2023-03-23T07:41:02;97226.28;;;15.15;54.84
22580;BME280;11456;47.030;15.396;2023-03-23T07:43:30;97228.88;;;14.58;56.70
22580;BME280;11456;47.030;15.396;2023-03-23T07:45:55;97230.44;;;15.17;55.00
22580;BME280;11456;47.030;15.396;2023-03-23T07:48:26;97224.66;;;15.20;53.36
22580;BME280;11456;47.030;15.396;2023-03-23T07:50:51;97226.41;;;14.92;54.41
22580;BME280;11456;47.030;15.396;2023-03-23T07:53:17;97223.22;;;15.03;54.83
22580;BME280;11456;47.030;15.396;2023-03-23T07:55:51;97226.09;;;15.16;54.91
22580;BME280;11456;47.030;15.396;2023-03-23T07:58:38;97225.19;;;14.95;54.26
22580;BME280;11456;47.030;15.396;2023-03-23T08:01:03;97229.22;;;14.25;55.42
22580;BME280;11456;47.030;15.396;2023-03-23T08:03:31;97216.53;;;14.40;56.13
22580;BME280;11456;47.030;15.396;2023-03-23T08:06:20;97226.44;;;14.63;54.53
22580;BME280;11456;47.030;15.396;2023-03-23T08:09:18;97218.25;;;14.92;54.27
22580;BME280;11456;47.030;15.396;2023-03-23T08:12:02;97222.13;;;14.83;53.74
22580;BME280;11456;47.030;15.396;2023-03-23T08:14:48;97219.16;;;14.78;54.50
22580;BME280;11456;47.030;15.396;2023-03-23T08:17:42;97219.59;;;15.17;53.83
22580;BME280;11456;47.030;15.396;2023-03-23T08:20:31;97219.53;;;15.11;53.92
22580;BME280;11456;47.030;15.396;2023-03-23T08:22:59;97222.59;;;15.22;53.09
22580;BME280;11456;47.030;15.396;2023-03-23T08:25:43;97210.13;;;15.28;53.28
22580;BME280;11456;47.030;15.396;2023-03-23T08:28:27;97210.75;;;15.09;53.52
22580;BME280;11456;47.030;15.396;2023-03-23T08:31:08;97214.09;;;15.47;53.44
22580;BME280;11456;47.030;15.396;2023-03-23T08:34:02;97206.06;;;15.81;52.82
22580;BME280;11456;47.030;15.396;2023-03-23T08:36:40;97210.06;;;16.13;51.46
22580;BME280;11456;47.030;15.396;2023-03-23T08:39:26;97211.16;;;16.47;50.55
22580;BME280;11456;47.030;15.396;2023-03-23T08:42:10;97206.00;;;16.24;51.12
22580;BME280;11456;47.030;15.396;2023-03-23T08:44:53;97211.16;;;16.47;51.12
22580;BME280;11456;47.030;15.396;2023-03-23T08:47:27;97208.19;;;16.41;52.09
22580;BME280;11456;47.030;15.396;2023-03-23T08:50:13;97207.69;;;16.25;50.89
22580;BME280;11456;47.030;15.396;2023-03-23T08:52:57;97211.50;;;15.81;52.33
22580;BME280;11456;47.030;15.396;2023-03-23T08:55:52;97207.25;;;16.28;51.77
22580;BME280;11456;47.030;15.396;2023-03-23T08:58:45;97207.53;;;16.67;51.58
22580;BME280;11456;47.030;15.396;2023-03-23T09:01:21;97216.72;;;16.66;53.39
22580;BME280;11456;47.030;15.396;2023-03-23T09:04:04;97213.38;;;17.12;51.28
22580;BME280;11456;47.030;15.396;2023-03-23T09:06:46;97208.19;;;17.30;50.25
22580;BME280;11456;47.030;15.396;2023-03-23T09:09:12;97211.91;;;17.16;50.66
22580;BME280;11456;47.030;15.396;2023-03-23T09:11:38;97206.50;;;17.29;51.16
22580;BME280;11456;47.030;15.396;2023-03-23T09:14:04;97213.03;;;17.41;50.84
22580;BME280;11456;47.030;15.396;2023-03-23T09:16:30;97212.09;;;18.08;48.99
22580;BME280;11456;47.030;15.396;2023-03-23T09:18:56;97207.88;;;18.32;46.19
22580;BME280;11456;47.030;15.396;2023-03-23T09:21:25;97212.44;;;17.52;49.56
22580;BME280;11456;47.030;15.396;2023-03-23T09:23:51;97211.59;;;17.52;49.27
22580;BME280;11456;47.030;15.396;2023-03-23T09:26:18;97206.63;;;18.08;47.95
22580;BME280;11456;47.030;15.396;2023-03-23T09:28:43;97209.78;;;18.05;47.99
22580;BME280;11456;47.030;15.396;2023-03-23T09:31:10;97207.47;;;18.02;48.19
22580;BME280;11456;47.030;15.396;2023-03-23T09:33:36;97208.72;;;18.06;47.67
22580;BME280;11456;47.030;15.396;2023-03-23T09:36:02;97204.75;;;18.02;47.37
22580;BME280;11456;47.030;15.396;2023-03-23T09:38:28;97211.25;;;17.01;49.41
22580;BME280;11456;47.030;15.396;2023-03-23T09:41:03;97207.19;;;17.44;49.28
22580;BME280;11456;47.030;15.396;2023-03-23T09:50:51;97191.06;;;18.55;47.11
22580;BME280;11456;47.030;15.396;2023-03-23T09:53:20;97186.31;;;19.77;44.14
22580;BME280;11456;47.030;15.396;2023-03-23T09:55:46;97183.31;;;19.79;43.78
22580;BME280;11456;47.030;15.396;2023-03-23T09:58:18;97182.22;;;18.72;44.84
22580;BME280;11456;47.030;15.396;2023-03-23T10:01:06;97195.03;;;19.16;45.27
22580;BME280;11456;47.030;15.396;2023-03-23T10:03:42;97175.88;;;19.92;42.62
22580;BME280;11456;47.030;15.396;2023-03-23T10:06:12;97185.75;;;19.93;42.43
22580;BME280;11456;47.030;15.396;2023-03-23T10:08:43;97182.25;;;18.66;44.41
22580;BME280;11456;47.030;15.396;2023-03-23T10:13:53;97181.63;;;18.37;45.62
22580;BME280;11456;47.030;15.396;2023-03-23T10:16:22;97172.25;;;18.20;45.72
22580;BME280;11456;47.030;15.396;2023-03-23T10:18:55;97166.28;;;18.63;44.57
22580;BME280;11456;47.030;15.396;2023-03-23T10:21:22;97153.72;;;19.51;43.25
22580;BME280;11456;47.030;15.396;2023-03-23T10:23:59;97147.84;;;20.22;41.85
22580;BME280;11456;47.030;15.396;2023-03-23T10:29:22;97153.94;;;20.67;40.69
22580;BME280;11456;47.030;15.396;2023-03-23T10:31:58;97145.31;;;20.63;40.30
22580;BME280;11456;47.030;15.396;2023-03-23T10:39:22;97143.53;;;22.30;37.11
22580;BME280;11456;47.030;15.396;2023-03-23T10:41:49;97145.13;;;21.73;37.77
22580;BME280;11456;47.030;15.396;2023-03-23T10:44:19;97139.84;;;22.24;39.43
22580;BME280;11456;47.030;15.396;2023-03-23T10:46:46;97135.38;;;22.82;38.17
22580;BME280;11456;47.030;15.396;2023-03-23T10:49:41;97128.56;;;21.79;38.17
22580;BME280;11456;47.030;15.396;2023-03-23T10:52:09;97126.66;;;21.80;39.38
22580;BME280;11456;47.030;15.396;2023-03-23T10:54:39;97129.50;;;23.58;34.95
22580;BME280;11456;47.030;15.396;2023-03-23T10:57:13;97133.94;;;22.67;36.19
22580;BME280;11456;47.030;15.396;2023-03-23T10:59:40;97127.03;;;22.65;37.03
22580;BME280;11456;47.030;15.396;2023-03-23T11:02:07;97130.50;;;22.49;37.70
22580;BME280;11456;47.030;15.396;2023-03-23T11:04:35;97133.00;;;23.70;34.92
22580;BME280;11456;47.030;15.396;2023-03-23T11:07:01;97130.00;;;24.55;33.00
22580;BME280;11456;47.030;15.396;2023-03-23T11:09:38;97124.69;;;24.15;33.28
22580;BME280;11456;47.030;15.396;2023-03-23T11:12:04;97135.84;;;23.75;34.29
22580;BME280;11456;47.030;15.396;2023-03-23T11:14:41;97123.09;;;22.84;34.18
22580;BME280;11456;47.030;15.396;2023-03-23T11:17:19;97124.88;;;23.18;34.09
22580;BME280;11456;47.030;15.396;2023-03-23T11:19:45;97136.06;;;23.29;33.48
22580;BME280;11456;47.030;15.396;2023-03-23T11:22:31;97128.69;;;24.08;32.56
22580;BME280;11456;47.030;15.396;2023-03-23T11:25:02;97136.69;;;22.79;33.52
22580;BME280;11456;47.030;15.396;2023-03-23T11:27:28;97132.56;;;22.18;35.10
22580;BME280;11456;47.030;15.396;2023-03-23T11:29:56;97134.13;;;22.14;35.69
22580;BME280;11456;47.030;15.396;2023-03-23T11:32:25;97128.13;;;21.41;36.61
22580;BME280;11456;47.030;15.396;2023-03-23T11:34:59;97136.19;;;21.06;37.48
22580;BME280;11456;47.030;15.396;2023-03-23T11:39:58;97123.72;;;20.55;38.54
22580;BME280;11456;47.030;15.396;2023-03-23T11:42:26;97123.06;;;20.42;38.83
22580;BME280;11456;47.030;15.396;2023-03-23T11:45:12;97124.66;;;20.86;37.83
22580;BME280;11456;47.030;15.396;2023-03-23T11:47:59;97123.81;;;20.85;37.64
22580;BME280;11456;47.030;15.396;2023-03-23T11:50:28;97121.19;;;21.80;36.98
22580;BME280;11456;47.030;15.396;2023-03-23T11:55:50;97112.50;;;23.33;33.92
22580;BME280;11456;47.030;15.396;2023-03-23T11:58:18;97116.22;;;22.98;34.57
22580;BME280;11456;47.030;15.396;2023-03-23T12:00:46;97112.34;;;22.71;34.84
22580;BME280;11456;47.030;15.396;2023-03-23T12:03:15;97113.59;;;23.32;33.72
22580;BME280;11456;47.030;15.396;2023-03-23T12:05:53;97121.66;;;23.50;32.74
22580;BME280;11456;47.030;15.396;2023-03-23T12:14:08;97106.19;;;24.11;32.02
22580;BME280;11456;47.030;15.396;2023-03-23T12:19:43;97094.25;;;23.27;32.85
22580;BME280;11456;47.030;15.396;2023-03-23T12:22:15;97091.66;;;22.92;33.24
22580;BME280;11456;47.030;15.396;2023-03-23T12:24:47;97087.94;;;23.43;32.33
22580;BME280;11456;47.030;15.396;2023-03-23T12:27:19;97078.44;;;23.62;32.46
22580;BME280;11456;47.030;15.396;2023-03-23T12:37:38;97077.19;;;23.25;32.13
22580;BME280;11456;47.030;15.396;2023-03-23T12:45:21;97080.06;;;24.68;30.04
22580;BME280;11456;47.030;15.396;2023-03-23T12:47:57;97076.22;;;25.13;29.85
22580;BME280;11456;47.030;15.396;2023-03-23T12:52:53;97060.16;;;25.90;28.34
22580;BME280;11456;47.030;15.396;2023-03-23T12:55:26;97051.69;;;26.02;28.69
22580;BME280;11456;47.030;15.396;2023-03-23T12:58:05;97048.34;;;25.09;30.19
22580;BME280;11456;47.030;15.396;2023-03-23T13:03:05;97044.72;;;25.58;29.51
22580;BME280;11456;47.030;15.396;2023-03-23T13:05:45;97031.66;;;24.72;30.96
22580;BME280;11456;47.030;15.396;2023-03-23T13:08:25;97023.66;;;25.20;30.16
22580;BME280;11456;47.030;15.396;2023-03-23T13:10:52;97023.69;;;25.51;29.63
22580;BME280;11456;47.030;15.396;2023-03-23T13:13:39;97027.28;;;24.33;30.82
22580;BME280;11456;47.030;15.396;2023-03-23T13:21:57;97016.47;;;23.09;32.52
22580;BME280;11456;47.030;15.396;2023-03-23T13:24:19;97020.69;;;22.72;33.30
22580;BME280;11456;47.030;15.396;2023-03-23T13:26:46;97016.66;;;23.19;32.24
22580;BME280;11456;47.030;15.396;2023-03-23T13:29:15;97011.38;;;23.01;32.70
22580;BME280;11456;47.030;15.396;2023-03-23T13:31:43;97008.69;;;23.35;32.60
22580;BME280;11456;47.030;15.396;2023-03-23T13:34:16;96996.16;;;24.11;31.89
22580;BME280;11456;47.030;15.396;2023-03-23T13:36:44;97001.22;;;23.80;32.05
22580;BME280;11456;47.030;15.396;2023-03-23T13:39:20;96995.63;;;24.30;31.12
22580;BME280;11456;47.030;15.396;2023-03-23T13:42:34;97003.78;;;23.70;32.04
22580;BME280;11456;47.030;15.396;2023-03-23T13:49:57;97004.69;;;24.96;30.42
22580;BME280;11456;47.030;15.396;2023-03-23T13:53:12;97010.06;;;24.21;30.70
22580;BME280;11456;47.030;15.396;2023-03-23T14:05:36;97000.84;;;25.93;29.02
22580;BME280;11456;47.030;15.396;2023-03-23T14:08:09;97002.06;;;25.70;27.87
22580;BME280;11456;47.030;15.396;2023-03-23T14:10:37;97002.09;;;25.43;27.88
22580;BME280;11456;47.030;15.396;2023-03-23T14:13:10;97005.56;;;25.61;27.31
22580;BME280;11456;47.030;15.396;2023-03-23T14:15:43;97001.38;;;24.94;28.31
22580;BME280;11456;47.030;15.396;2023-03-23T14:18:13;97005.41;;;24.43;29.43
22580;BME280;11456;47.030;15.396;2023-03-23T14:20:39;97007.38;;;25.18;28.30
22580;BME280;11456;47.030;15.396;2023-03-23T14:23:05;97010.72;;;24.50;30.03
22580;BME280;11456;47.030;15.396;2023-03-23T14:25:31;97002.03;;;24.58;29.04
22580;BME280;11456;47.030;15.396;2023-03-23T14:27:58;97002.38;;;24.66;28.57
22580;BME280;11456;47.030;15.396;2023-03-23T14:30:26;97014.53;;;24.27;29.29
22580;BME280;11456;47.030;15.396;2023-03-23T14:32:52;97014.31;;;24.50;29.35
22580;BME280;11456;47.030;15.396;2023-03-23T14:35:25;97002.88;;;24.85;29.04
22580;BME280;11456;47.030;15.396;2023-03-23T14:37:51;97006.53;;;25.44;28.38
22580;BME280;11456;47.030;15.396;2023-03-23T14:40:17;97007.72;;;25.85;28.21
22580;BME280;11456;47.030;15.396;2023-03-23T14:42:43;97006.28;;;25.78;28.27
22580;BME280;11456;47.030;15.396;2023-03-23T14:45:17;97002.63;;;25.08;28.26
22580;BME280;11456;47.030;15.396;2023-03-23T14:47:47;97004.63;;;25.18;28.67
22580;BME280;11456;47.030;15.396;2023-03-23T14:50:24;97000.59;;;25.58;28.21